Time;durP1;ratioP1;P1;durP2;ratioP2;P2;SDS_P1;SDS_P2;PMS_P1;PMS_P2;Temp;Humidity;BMP_temperature;BMP_pressure;BME280_temperature;BME280_humidity;BME280_pressure;Samples;Min_cycle;Max_cycle;Signal;HPM_P1;HPM_P2
2021/09/26 00:02:16;;;;;;;8.00;5.40;;;;;;;18.40;54.20;100738.09;5091781;28;20028;-22
2021/09/26 00:04:41;;;;;;;9.43;5.95;;;;;;;18.37;54.33;100741.31;5091337;28;20092;-22
2021/09/26 00:07:07;;;;;;;12.10;5.75;;;;;;;18.66;53.64;100747.28;5073341;28;20445;-22
2021/09/26 00:09:33;;;;;;;8.75;6.22;;;;;;;18.17;55.50;100747.31;5091528;28;20047;-22
2021/09/26 00:11:58;;;;;;;9.38;5.45;;;;;;;18.14;55.46;100738.91;5091142;28;20028;-22
2021/09/26 00:14:24;;;;;;;7.78;5.75;;;;;;;17.66;56.99;100728.56;5073276;28;20087;-22
2021/09/26 00:16:49;;;;;;;8.93;5.68;;;;;;;17.32;57.78;100727.03;5090985;28;20028;-22
2021/09/26 00:19:15;;;;;;;8.38;5.55;;;;;;;17.04;58.52;100721.50;5072962;28;20497;-22
2021/09/26 00:21:40;;;;;;;8.30;5.55;;;;;;;17.00;57.97;100708.75;5091174;28;20085;-22
2021/09/26 00:24:06;;;;;;;9.20;6.18;;;;;;;17.33;57.83;100720.59;5091457;28;20054;-22
2021/09/26 00:26:31;;;;;;;10.02;6.25;;;;;;;17.18;58.60;100722.00;5090819;28;20058;-21
2021/09/26 00:28:57;;;;;;;12.88;6.03;;;;;;;16.91;58.81;100712.94;5091161;28;20028;-22
2021/09/26 00:31:22;;;;;;;11.10;6.00;;;;;;;17.26;57.88;100718.88;5091006;28;20133;-22
2021/09/26 00:33:48;;;;;;;11.52;6.38;;;;;;;16.93;58.72;100718.88;5090614;28;20105;-22
2021/09/26 00:36:13;;;;;;;10.20;5.85;;;;;;;17.18;58.09;100726.53;5091086;28;20024;-22
2021/09/26 00:38:38;;;;;;;11.70;6.55;;;;;;;17.64;56.54;100719.91;5090686;28;20028;-22
2021/09/26 00:41:04;;;;;;;9.75;6.28;;;;;;;17.36;57.21;100728.97;5090737;28;20020;-22
2021/09/26 00:43:30;;;;;;;11.75;6.72;;;;;;;17.43;57.11;100729.63;5091084;28;20499;-22
2021/09/26 00:45:55;;;;;;;10.98;7.10;;;;;;;17.56;56.75;100731.13;5089476;28;20031;-22
2021/09/26 00:48:21;;;;;;;14.98;7.20;;;;;;;17.72;56.34;100729.47;5090367;28;20050;-22
2021/09/26 00:50:46;;;;;;;9.80;6.65;;;;;;;17.53;57.22;100734.34;5090223;28;20032;-22
2021/09/26 00:53:12;;;;;;;23.00;7.63;;;;;;;17.61;57.04;100731.22;5090541;28;20468;-22
2021/09/26 00:55:37;;;;;;;11.55;6.70;;;;;;;17.55;57.33;100721.44;5090335;28;20480;-22
2021/09/26 00:58:03;;;;;;;12.52;7.53;;;;;;;17.70;56.57;100728.91;5090445;28;20032;-21
2021/09/26 01:00:28;;;;;;;13.38;7.47;;;;;;;17.66;56.55;100731.28;5090425;28;20032;-22
2021/09/26 01:02:54;;;;;;;12.88;6.93;;;;;;;17.11;58.56;100732.09;5089930;28;20111;-21
2021/09/26 01:05:20;;;;;;;11.70;7.40;;;;;;;17.47;56.86;100733.44;5072061;28;20411;-22
2021/09/26 01:07:52;;;;;;;9.57;7.25;;;;;;;17.48;56.54;100710.81;5055514;28;20035;-21
2021/09/26 01:10:39;;;;;;;11.88;6.75;;;;;;;17.62;56.36;100740.94;5090187;28;20027;-21
2021/09/26 01:13:13;;;;;;;12.30;7.07;;;;;;;17.71;55.75;100730.53;5090108;28;20032;-22
2021/09/26 01:15:43;;;;;;;12.57;6.88;;;;;;;17.66;56.03;100728.56;5090209;28;20881;-21
2021/09/26 01:18:33;;;;;;;13.65;6.95;;;;;;;17.70;55.35;100717.31;5089991;28;20020;-21
2021/09/26 01:21:17;;;;;;;10.20;6.90;;;;;;;17.76;55.48;100733.28;5074687;28;20036;-22
2021/09/26 01:23:51;;;;;;;20.58;8.35;;;;;;;17.75;54.52;100717.34;5089861;28;20135;-22
2021/09/26 01:26:39;;;;;;;13.45;7.20;;;;;;;17.67;54.49;100730.22;5055573;28;20119;-22
2021/09/26 01:29:13;;;;;;;;;;;;;;;17.41;55.08;100730.94;5090228;28;20505;-21
2021/09/26 01:31:45;;;;;;;12.07;6.93;;;;;;;17.33;54.36;100717.88;5089894;28;19912;-22
2021/09/26 01:34:16;;;;;;;9.30;6.80;;;;;;;17.50;55.22;100740.22;5071545;28;20056;-22
2021/09/26 01:37:14;;;;;;;11.73;6.82;;;;;;;17.35;54.87;100711.19;5089440;28;20107;-22
2021/09/26 01:39:46;;;;;;;18.80;10.00;;;;;;;17.60;53.93;100713.41;5058819;28;20032;-22
2021/09/26 01:42:35;;;;;;;18.92;9.48;;;;;;;17.61;55.01;100736.63;5072130;28;20068;-22
2021/09/26 01:45:33;;;;;;;15.98;8.90;;;;;;;17.18;55.89;100735.47;5059493;28;20044;-22
2021/09/26 01:48:02;;;;;;;;;;;;;;;16.96;56.24;100737.25;5068230;28;20119;-21
2021/09/26 01:50:27;;;;;;;17.17;8.98;;;;;;;16.34;57.76;100733.44;5089415;28;19908;-22
2021/09/26 01:52:52;;;;;;;15.57;9.57;;;;;;;16.27;58.14;100732.78;5071193;28;20039;-21
2021/09/26 01:55:20;;;;;;;13.60;8.43;;;;;;;16.00;59.42;100735.22;5055141;28;20411;-21
2021/09/26 01:57:45;;;;;;;15.10;8.40;;;;;;;16.04;59.04;100739.09;5071497;28;20062;-21
2021/09/26 02:00:12;;;;;;;29.85;9.30;;;;;;;16.03;58.62;100724.78;5071135;28;20048;-22
2021/09/26 02:02:37;;;;;;;13.90;8.10;;;;;;;16.53;57.11;100735.94;5089113;28;20107;-22
2021/09/26 02:05:05;;;;;;;15.52;8.55;;;;;;;16.19;58.28;100719.72;5071265;28;20101;-22
2021/09/26 02:07:32;;;;;;;13.15;7.82;;;;;;;15.84;59.30;100736.78;5071075;28;20040;-22
2021/09/26 02:09:57;;;;;;;13.20;7.65;;;;;;;15.45;60.33;100742.66;5071254;28;20074;-21
2021/09/26 02:12:23;;;;;;;14.30;7.80;;;;;;;15.37;61.03;100728.75;5054533;28;20537;-22
2021/09/26 02:14:49;;;;;;;11.13;7.38;;;;;;;15.29;60.83;100737.16;5071223;28;20123;-21
2021/09/26 02:17:15;;;;;;;9.43;6.78;;;;;;;15.02;61.03;100738.44;5071082;28;20036;-21
2021/09/26 02:19:40;;;;;;;11.93;7.20;;;;;;;14.77;61.60;100725.19;5071127;28;20039;-21
2021/09/26 02:22:06;;;;;;;11.93;7.75;;;;;;;14.71;62.43;100722.59;5071011;28;20032;-22
2021/09/26 02:24:33;;;;;;;13.18;7.78;;;;;;;14.79;62.64;100728.47;5054115;28;20032;-22
2021/09/26 02:26:59;;;;;;;11.73;7.03;;;;;;;14.58;62.09;100726.31;5071186;28;20028;-22
2021/09/26 02:29:24;;;;;;;11.85;7.07;;;;;;;14.50;62.77;100730.09;5070917;28;20411;-22
2021/09/26 02:31:50;;;;;;;13.02;7.57;;;;;;;14.72;62.51;100724.25;5089008;28;20471;-22
2021/09/26 02:34:15;;;;;;;15.30;8.32;;;;;;;15.44;60.93;100718.69;5088609;28;20059;-22
2021/09/26 02:36:41;;;;;;;14.43;8.32;;;;;;;14.86;62.65;100713.06;5088955;28;20039;-21
2021/09/26 02:39:07;;;;;;;12.98;8.43;;;;;;;14.61;63.80;100723.19;5088887;28;20073;-22
2021/09/26 02:41:43;;;;;;;12.70;7.47;;;;;;;14.40;63.69;100730.63;5088971;28;20036;-22
2021/09/26 02:44:21;;;;;;;11.18;7.13;;;;;;;14.29;62.91;100734.09;5070871;28;20058;-22
2021/09/26 02:46:50;;;;;;;26.50;7.68;;;;;;;14.44;62.41;100737.22;5088766;28;20031;-22
2021/09/26 02:49:15;;;;;;;11.77;7.15;;;;;;;14.76;61.45;100739.66;5070499;28;20032;-22
2021/09/26 02:51:41;;;;;;;10.32;7.10;;;;;;;14.49;63.25;100733.84;5054085;28;20035;-21
2021/09/26 02:54:06;;;;;;;9.57;6.65;;;;;;;14.54;62.53;100730.47;5088913;28;20456;-22
2021/09/26 02:56:32;;;;;;;11.88;7.10;;;;;;;14.32;63.00;100727.47;5070398;28;20886;-22
2021/09/26 02:59:01;;;;;;;12.88;7.18;;;;;;;14.31;63.74;100732.03;5053929;28;20039;-22
2021/09/26 03:01:27;;;;;;;9.75;7.13;;;;;;;14.68;61.97;100707.78;5088852;28;20078;-22
2021/09/26 03:04:07;;;;;;;13.75;7.85;;;;;;;15.07;60.78;100724.28;5088657;28;20504;-22
2021/09/26 03:06:33;;;;;;;11.23;7.38;;;;;;;14.68;62.54;100731.94;5088511;28;20107;-21
2021/09/26 03:08:58;;;;;;;11.77;7.20;;;;;;;14.54;63.05;100722.41;5089753;28;20025;-22
2021/09/26 03:11:24;;;;;;;12.20;7.25;;;;;;;14.44;62.77;100731.84;5074324;28;20032;-21
2021/09/26 03:13:50;;;;;;;16.98;7.82;;;;;;;14.40;63.14;100735.19;5092308;28;20036;-22
2021/09/26 03:16:16;;;;;;;10.00;7.22;;;;;;;13.98;64.26;100730.59;5092271;28;20032;-21
2021/09/26 03:18:41;;;;;;;12.73;7.53;;;;;;;14.21;63.77;100742.47;5092189;28;20070;-22
2021/09/26 03:21:06;;;;;;;10.05;7.45;;;;;;;14.55;62.16;100729.44;5074254;28;20036;-21
2021/09/26 03:23:32;;;;;;;10.40;7.18;;;;;;;14.56;61.45;100744.50;5092130;28;20040;-22
2021/09/26 03:25:57;;;;;;;12.55;7.78;;;;;;;14.63;62.09;100734.50;5092288;28;20090;-22
2021/09/26 03:28:23;;;;;;;10.43;7.25;;;;;;;14.91;60.78;100739.22;5092271;28;20863;-22
2021/09/26 03:30:48;;;;;;;14.40;8.80;;;;;;;14.98;59.95;100737.25;5091831;28;20036;-22
2021/09/26 03:33:14;;;;;;;13.88;9.50;;;;;;;15.08;60.01;100742.06;5091995;28;20044;-22
2021/09/26 03:35:39;;;;;;;17.98;9.13;;;;;;;14.69;60.79;100744.31;5073867;28;20492;-22
2021/09/26 03:38:05;;;;;;;12.80;7.85;;;;;;;14.33;62.44;100724.56;5091750;28;20032;-22
2021/09/26 03:40:31;;;;;;;27.83;9.70;;;;;;;14.62;61.42;100743.59;5091767;28;20031;-22
2021/09/26 03:42:56;;;;;;;16.38;7.97;;;;;;;15.23;59.94;100747.78;5073785;28;20472;-22
2021/09/26 03:45:22;;;;;;;13.60;7.88;;;;;;;15.14;60.28;100745.66;5092156;28;20043;-21
2021/09/26 03:47:47;;;;;;;12.48;7.90;;;;;;;15.02;60.45;100743.00;5092219;28;20059;-22
2021/09/26 03:50:13;;;;;;;20.38;7.97;;;;;;;14.53;62.23;100739.56;5091785;28;20040;-22
2021/09/26 03:52:39;;;;;;;11.95;7.22;;;;;;;13.94;64.36;100745.47;5073450;28;20450;-21
2021/09/26 03:55:06;;;;;;;14.35;8.00;;;;;;;13.57;65.56;100741.97;5091520;28;20031;-23
2021/09/26 03:57:32;;;;;;;16.52;8.38;;;;;;;13.59;65.46;100748.75;5091607;28;20173;-22
2021/09/26 03:59:57;;;;;;;16.08;7.82;;;;;;;13.97;64.24;100745.00;5091724;28;20107;-22
2021/09/26 04:02:22;;;;;;;14.18;8.05;;;;;;;14.30;63.22;100749.16;5091498;28;20052;-22
2021/09/26 04:04:48;;;;;;;13.20;7.75;;;;;;;14.13;63.74;100748.16;5091539;28;20042;-22
2021/09/26 04:07:13;;;;;;;15.75;8.20;;;;;;;13.77;65.20;100757.84;5091548;28;20028;-22
2021/09/26 04:09:39;;;;;;;21.38;9.43;;;;;;;13.71;66.17;100758.72;5091480;28;20040;-22
2021/09/26 04:12:05;;;;;;;20.05;8.73;;;;;;;14.14;63.27;100769.38;5091397;28;20032;-22
2021/09/26 04:14:30;;;;;;;12.77;7.75;;;;;;;14.18;64.10;100769.72;5091359;28;20476;-22
2021/09/26 04:16:56;;;;;;;11.15;8.00;;;;;;;14.46;63.71;100748.53;5091121;28;20031;-22
2021/09/26 04:19:21;;;;;;;12.63;8.10;;;;;;;14.01;64.31;100746.22;5091076;28;20040;-22
2021/09/26 04:21:50;;;;;;;14.18;7.45;;;;;;;14.06;65.21;100757.09;5091129;28;20028;-22
2021/09/26 04:24:15;;;;;;;11.32;7.20;;;;;;;14.07;64.80;100734.56;5091233;28;20043;-23
2021/09/26 04:26:41;;;;;;;12.30;7.68;;;;;;;14.43;63.16;100740.94;5091268;28;20028;-22
2021/09/26 04:29:06;;;;;;;12.73;8.68;;;;;;;14.23;63.62;100759.16;5090942;28;20032;-22
2021/09/26 04:31:32;;;;;;;15.55;8.05;;;;;;;14.18;64.33;100759.00;5073304;28;20106;-22
2021/09/26 04:33:57;;;;;;;16.80;8.90;;;;;;;14.49;63.68;100767.91;5090894;28;20492;-22
2021/09/26 04:36:23;;;;;;;16.48;8.25;;;;;;;14.56;63.59;100769.47;5090834;28;20027;-22
2021/09/26 04:38:48;;;;;;;18.70;9.80;;;;;;;14.30;64.11;100773.28;5090579;28;20456;-22
2021/09/26 04:41:14;;;;;;;20.60;10.60;;;;;;;14.30;65.29;100767.94;5090774;28;20028;-22
2021/09/26 04:43:39;;;;;;;17.25;9.85;;;;;;;14.40;64.38;100773.56;5090805;28;20043;-22
2021/09/26 04:46:05;;;;;;;17.63;10.63;;;;;;;14.53;64.61;100777.16;5090702;28;20039;-22
2021/09/26 04:48:30;;;;;;;16.00;9.23;;;;;;;14.45;63.89;100789.81;5090610;28;20116;-22
2021/09/26 04:50:56;;;;;;;14.63;7.57;;;;;;;13.83;63.53;100724.75;5090310;28;20398;-22
2021/09/26 04:53:21;;;;;;;16.00;7.30;;;;;;;14.04;65.59;100779.81;5090566;28;20510;-22
2021/09/26 04:55:47;;;;;;;11.20;7.35;;;;;;;13.61;64.78;100781.50;5090462;28;20032;-22
2021/09/26 04:58:12;;;;;;;13.93;7.30;;;;;;;14.10;62.59;100784.28;5090360;28;20028;-22
2021/09/26 05:00:38;;;;;;;43.10;24.13;;;;;;;14.38;61.80;100759.56;5089970;28;20040;-22
2021/09/26 05:03:04;;;;;;;11.93;7.15;;;;;;;15.10;59.87;100788.31;5072223;28;20472;-22
2021/09/26 05:05:29;;;;;;;13.57;6.78;;;;;;;14.59;61.40;100779.78;5090360;28;20107;-22
2021/09/26 05:07:55;;;;;;;26.00;8.40;;;;;;;14.23;63.04;100778.75;5090241;28;20469;-22
2021/09/26 05:10:21;;;;;;;11.93;7.45;;;;;;;14.36;61.93;100776.94;5090324;28;20032;-22
2021/09/26 05:12:46;;;;;;;11.95;7.00;;;;;;;14.59;62.29;100787.00;5089860;28;20027;-22
2021/09/26 05:15:13;;;;;;;12.27;8.05;;;;;;;14.60;62.01;100762.59;5089918;28;20032;-22
2021/09/26 05:17:38;;;;;;;13.13;7.50;;;;;;;14.94;61.64;100781.75;5089670;28;20498;-22
2021/09/26 05:20:04;;;;;;;10.05;7.07;;;;;;;14.91;61.52;100773.31;5089936;28;20032;-22
2021/09/26 05:22:30;;;;;;;12.15;7.70;;;;;;;14.81;62.15;100772.03;5090028;28;20045;-23
2021/09/26 05:24:55;;;;;;;16.02;8.80;;;;;;;15.12;61.26;100780.84;5089714;28;20035;-23
2021/09/26 05:27:21;;;;;;;13.43;8.05;;;;;;;15.51;60.18;100794.66;5089895;28;20528;-22
2021/09/26 05:29:47;;;;;;;11.32;7.15;;;;;;;15.45;60.09;100795.59;5071719;28;20113;-23
2021/09/26 05:32:12;;;;;;;13.20;7.38;;;;;;;15.39;60.33;100791.97;5089160;28;20036;-22
2021/09/26 05:34:38;;;;;;;11.85;7.63;;;;;;;15.13;60.40;100781.66;5089252;28;20048;-22
2021/09/26 05:37:03;;;;;;;13.50;7.60;;;;;;;15.53;59.85;100780.97;5090052;28;20098;-22
2021/09/26 05:39:31;;;;;;;34.35;19.95;;;;;;;15.55;59.96;100787.75;5089635;28;20119;-22
2021/09/26 05:41:57;;;;;;;16.23;9.13;;;;;;;16.11;59.11;100787.38;5071710;28;20032;-22
2021/09/26 05:44:22;;;;;;;13.75;10.57;;;;;;;16.35;58.24;100788.94;5089588;28;20051;-22
2021/09/26 05:46:48;;;;;;;21.85;16.38;;;;;;;16.60;58.33;100791.28;5089522;28;20431;-22
2021/09/26 05:49:13;;;;;;;14.50;8.80;;;;;;;16.73;57.43;100790.16;5089507;28;20028;-23
2021/09/26 05:51:39;;;;;;;12.00;7.63;;;;;;;16.76;57.43;100792.38;5089311;28;20024;-22
2021/09/26 05:54:04;;;;;;;12.73;8.70;;;;;;;16.79;57.51;100797.28;5089562;28;20111;-22
2021/09/26 05:56:30;;;;;;;13.27;8.07;;;;;;;16.96;57.59;100794.66;5071256;28;20055;-23
2021/09/26 05:58:55;;;;;;;13.15;7.95;;;;;;;16.92;57.52;100812.38;5088740;28;20118;-22
2021/09/26 06:01:21;;;;;;;14.20;8.52;;;;;;;17.20;57.28;100810.66;5089697;28;20085;-22
2021/09/26 06:03:46;;;;;;;12.32;7.85;;;;;;;17.56;56.48;100819.31;5089229;28;20028;-21
2021/09/26 06:06:12;;;;;;;14.07;8.65;;;;;;;17.46;56.62;100819.97;5089079;28;20028;-22
2021/09/26 06:08:37;;;;;;;15.05;8.70;;;;;;;17.77;56.39;100828.53;5088967;28;20051;-22
2021/09/26 06:11:03;;;;;;;13.25;8.43;;;;;;;17.76;56.49;100813.41;5089200;28;20065;-22
2021/09/26 06:13:28;;;;;;;12.38;8.60;;;;;;;18.23;56.07;100823.78;5088941;28;20108;-22
2021/09/26 06:15:54;;;;;;;11.52;7.30;;;;;;;18.45;55.68;100826.47;5071172;28;20020;-22
2021/09/26 06:18:19;;;;;;;12.10;7.85;;;;;;;18.70;54.58;100831.34;5089018;28;20031;-22
2021/09/26 06:20:45;;;;;;;10.07;7.50;;;;;;;18.89;54.27;100801.28;5088664;28;20031;-22
2021/09/26 06:23:11;;;;;;;14.52;9.35;;;;;;;18.66;55.63;100827.50;5089055;28;20028;-22
2021/09/26 06:25:37;;;;;;;12.68;8.55;;;;;;;18.85;55.06;100809.09;5088946;28;20036;-22
2021/09/26 06:28:02;;;;;;;10.63;7.45;;;;;;;18.98;54.84;100797.03;5088833;28;20050;-22
2021/09/26 06:30:28;;;;;;;14.25;8.80;;;;;;;19.13;54.79;100805.28;5088852;28;20077;-22
2021/09/26 06:32:53;;;;;;;12.52;8.95;;;;;;;19.01;55.05;100801.94;5088659;28;20044;-22
2021/09/26 06:35:19;;;;;;;14.60;8.88;;;;;;;19.27;55.50;100806.47;5088687;28;20048;-22
2021/09/26 06:37:44;;;;;;;12.80;9.07;;;;;;;19.35;55.08;100790.84;5089075;28;20028;-22
2021/09/26 06:40:10;;;;;;;24.88;10.38;;;;;;;19.57;55.25;100804.25;5088776;28;20081;-22
2021/09/26 06:42:36;;;;;;;14.57;8.77;;;;;;;19.76;55.18;100812.81;5088479;28;20077;-22
2021/09/26 06:45:02;;;;;;;13.27;9.23;;;;;;;19.23;55.80;100793.75;5092160;28;20259;-22
2021/09/26 06:47:27;;;;;;;13.90;9.70;;;;;;;19.30;55.96;100810.53;5092937;28;20434;-22
2021/09/26 06:49:52;;;;;;;12.63;9.10;;;;;;;19.52;55.04;100802.31;5092789;28;20032;-22
2021/09/26 06:52:18;;;;;;;16.10;9.75;;;;;;;19.47;56.98;100805.81;5092901;28;20062;-22
2021/09/26 06:54:44;;;;;;;18.13;11.18;;;;;;;19.65;56.41;100806.47;5092576;28;20472;-22
2021/09/26 06:57:10;;;;;;;17.42;9.30;;;;;;;19.91;55.48;100810.16;5092577;28;20480;-22
2021/09/26 06:59:36;;;;;;;15.75;10.20;;;;;;;20.29;54.75;100800.03;5092946;28;20039;-22
2021/09/26 07:02:01;;;;;;;12.48;9.02;;;;;;;20.24;53.53;100808.94;5092761;28;20404;-22
2021/09/26 07:04:27;;;;;;;16.92;9.10;;;;;;;20.15;53.81;100815.97;5092651;28;20024;-22
2021/09/26 07:06:52;;;;;;;12.82;9.02;;;;;;;19.75;54.39;100794.91;5074238;28;20392;-22
2021/09/26 07:09:18;;;;;;;13.00;9.00;;;;;;;19.85;54.70;100779.53;5092218;28;20028;-22
2021/09/26 07:11:44;;;;;;;15.15;9.02;;;;;;;20.12;55.00;100780.47;5092453;28;20491;-21
2021/09/26 07:14:09;;;;;;;15.48;8.73;;;;;;;20.13;54.97;100784.81;5092534;28;20034;-21
2021/09/26 07:16:35;;;;;;;12.48;8.60;;;;;;;20.35;54.23;100804.41;5092440;28;20059;-22
2021/09/26 07:19:00;;;;;;;13.60;10.13;;;;;;;20.55;53.78;100808.22;5092453;28;20028;-22
2021/09/26 07:21:26;;;;;;;10.40;7.90;;;;;;;20.66;53.37;100809.94;5093117;28;20031;-22
2021/09/26 07:23:51;;;;;;;12.05;8.23;;;;;;;20.72;52.43;100795.31;5095133;28;20040;-22
2021/09/26 07:26:17;;;;;;;11.35;9.35;;;;;;;20.65;52.84;100797.44;5095461;28;20464;-22
2021/09/26 07:28:42;;;;;;;10.55;8.05;;;;;;;20.48;53.31;100809.31;5095842;28;20032;-22
2021/09/26 07:31:08;;;;;;;14.18;8.70;;;;;;;20.77;52.80;100814.28;5095457;28;20028;-22
2021/09/26 07:33:34;;;;;;;13.13;8.63;;;;;;;20.97;52.44;100810.78;5094975;28;20122;-22
2021/09/26 07:35:59;;;;;;;10.88;7.50;;;;;;;21.06;52.08;100808.34;5095642;28;20028;-22
2021/09/26 07:38:25;;;;;;;11.88;8.13;;;;;;;21.08;52.28;100806.16;5095384;28;20028;-22
2021/09/26 07:40:50;;;;;;;11.05;7.97;;;;;;;21.09;53.00;100807.81;5095299;28;20085;-22
2021/09/26 07:43:16;;;;;;;11.20;7.72;;;;;;;21.24;53.53;100806.97;5095260;28;20036;-22
2021/09/26 07:45:41;;;;;;;10.18;7.55;;;;;;;21.39;51.96;100795.28;5095288;28;20507;-22
2021/09/26 07:48:06;;;;;;;14.10;8.20;;;;;;;21.66;50.45;100801.25;5095283;28;20032;-22
2021/09/26 07:50:32;;;;;;;11.50;7.60;;;;;;;21.64;50.49;100808.06;5095201;28;20444;-21
2021/09/26 07:52:58;;;;;;;11.27;8.15;;;;;;;21.44;49.46;100770.91;5095139;28;20039;-22
2021/09/26 07:55:23;;;;;;;14.30;7.63;;;;;;;21.89;48.51;100788.16;5094419;28;20035;-21
2021/09/26 07:57:49;;;;;;;9.52;7.25;;;;;;;21.93;48.22;100786.53;5095282;28;20028;-21
2021/09/26 08:00:15;;;;;;;10.48;7.47;;;;;;;22.11;47.84;100800.56;5094870;28;20495;-22
2021/09/26 08:02:40;;;;;;;9.35;6.18;;;;;;;22.05;47.02;100795.16;5094857;28;20062;-22
2021/09/26 08:05:07;;;;;;;8.95;6.53;;;;;;;22.14;47.02;100792.66;5094854;28;20039;-22
2021/09/26 08:07:33;;;;;;;10.90;7.38;;;;;;;22.44;46.26;100799.09;5094747;28;20035;-21
2021/09/26 08:09:59;;;;;;;10.18;6.70;;;;;;;22.41;46.01;100789.59;5094699;28;20032;-21
2021/09/26 08:12:24;;;;;;;9.55;6.40;;;;;;;22.67;45.50;100798.38;5094869;28;20535;-21
2021/09/26 08:14:50;;;;;;;11.43;6.20;;;;;;;22.80;45.01;100794.25;5094700;28;20492;-21
2021/09/26 08:17:15;;;;;;;10.20;6.82;;;;;;;22.84;44.99;100780.88;5094611;28;20032;-21
2021/09/26 08:19:40;;;;;;;8.68;6.40;;;;;;;23.00;44.36;100789.72;5094509;28;20028;-22
2021/09/26 08:22:06;;;;;;;10.98;6.40;;;;;;;23.03;43.85;100775.59;5094420;28;20028;-22
2021/09/26 08:24:32;;;;;;;10.70;6.65;;;;;;;23.27;43.75;100783.81;5094522;28;20036;-22
2021/09/26 08:26:58;;;;;;;11.88;5.88;;;;;;;23.22;44.20;100781.94;5094450;28;20095;-22
2021/09/26 08:29:24;;;;;;;8.63;6.05;;;;;;;23.60;43.08;100779.41;5094496;28;20020;-22
2021/09/26 08:31:49;;;;;;;11.63;5.93;;;;;;;23.95;42.14;100782.06;5094349;28;20039;-22
2021/09/26 08:34:15;;;;;;;10.13;5.57;;;;;;;23.84;42.06;100765.00;5094254;28;20056;-22
2021/09/26 08:36:41;;;;;;;7.88;5.90;;;;;;;24.02;41.82;100777.03;5094305;28;20416;-22
2021/09/26 08:39:06;;;;;;;10.43;6.10;;;;;;;24.19;42.15;100771.09;5093917;28;20035;-21
2021/09/26 08:41:32;;;;;;;8.57;6.32;;;;;;;23.95;40.86;100768.44;5094198;28;20032;-21
2021/09/26 08:43:57;;;;;;;12.00;6.60;;;;;;;24.16;41.68;100766.25;5076101;28;20028;-21
2021/09/26 08:46:23;;;;;;;9.27;5.72;;;;;;;24.18;42.02;100756.66;5059220;28;20036;-22
2021/09/26 08:48:48;;;;;;;9.55;5.97;;;;;;;24.13;41.66;100755.91;5076178;28;20031;-22
2021/09/26 08:51:14;;;;;;;11.63;6.18;;;;;;;24.15;41.41;100753.72;5094070;28;20056;-21
2021/09/26 08:53:39;;;;;;;8.00;5.57;;;;;;;24.57;41.57;100750.13;5056658;28;20035;-22
2021/09/26 08:56:05;;;;;;;9.13;5.85;;;;;;;24.63;41.42;100748.16;5090488;28;20035;-22
2021/09/26 08:58:30;;;;;;;9.05;5.65;;;;;;;24.58;39.98;100740.03;5090428;28;20448;-22
2021/09/26 09:00:56;;;;;;;9.57;5.78;;;;;;;24.69;39.81;100736.06;5090353;28;20031;-22
2021/09/26 09:03:21;;;;;;;7.82;5.38;;;;;;;24.60;41.25;100743.28;5090526;28;20032;-22
2021/09/26 09:05:51;;;;;;;9.80;5.70;;;;;;;24.94;39.49;100739.47;5090053;28;20844;-21
2021/09/26 09:08:19;;;;;;;8.65;5.63;;;;;;;25.13;39.19;100729.31;5089841;28;20112;-21
2021/09/26 09:11:01;;;;;;;8.10;5.20;;;;;;;25.74;38.40;100732.00;5071891;28;20024;-22
2021/09/26 09:13:31;;;;;;;7.70;5.47;;;;;;;25.69;37.45;100726.66;5090253;28;20028;-21
2021/09/26 09:16:06;;;;;;;7.78;5.43;;;;;;;25.75;38.04;100736.34;5072581;28;20798;-21
2021/09/26 09:18:55;;;;;;;9.32;5.20;;;;;;;25.68;37.20;100717.63;5089782;28;20118;-21
2021/09/26 09:21:41;;;;;;;10.18;5.90;;;;;;;25.15;38.37;100739.91;5090235;28;20032;-21
2021/09/26 09:24:09;;;;;;;10.40;6.07;;;;;;;25.51;37.82;100731.91;5089996;28;20039;-21
2021/09/26 09:26:37;;;;;;;8.85;5.85;;;;;;;25.85;37.03;100728.75;5089866;28;20104;-21
2021/09/26 09:29:02;;;;;;;8.32;5.65;;;;;;;25.98;36.26;100732.59;5089950;28;20024;-21
2021/09/26 09:31:28;;;;;;;8.38;5.43;;;;;;;26.29;36.51;100728.38;5089846;28;20032;-21
2021/09/26 09:33:53;;;;;;;8.35;5.50;;;;;;;26.39;35.57;100726.22;5089655;28;20047;-21
2021/09/26 09:36:23;;;;;;;11.13;5.82;;;;;;;26.35;35.78;100725.22;5089812;28;20059;-21
2021/09/26 09:38:50;;;;;;;9.95;6.38;;;;;;;26.14;36.60;100707.69;5089499;28;20028;-21
2021/09/26 09:41:37;;;;;;;9.60;6.23;;;;;;;26.28;36.09;100719.38;5089749;28;20028;-21
2021/09/26 09:44:08;;;;;;;9.45;5.93;;;;;;;26.35;37.81;100714.28;5089842;28;20387;-21
2021/09/26 09:46:37;;;;;;;10.90;6.95;;;;;;;26.52;35.81;100719.09;5089671;28;20032;-21
2021/09/26 09:49:18;;;;;;;8.98;6.35;;;;;;;27.07;35.32;100707.06;5089389;28;20024;-21
2021/09/26 09:51:49;;;;;;;9.25;6.20;;;;;;;26.99;35.17;100707.81;5089452;28;20423;-21
2021/09/26 09:54:14;;;;;;;8.98;6.88;;;;;;;27.17;35.16;100703.25;5089531;28;20024;-21
2021/09/26 09:56:44;;;;;;;9.95;6.72;;;;;;;27.26;33.98;100704.13;5088980;28;20440;-21
2021/09/26 09:59:10;;;;;;;9.48;6.38;;;;;;;27.29;33.14;100700.75;5089435;28;20035;-21
2021/09/26 10:01:37;;;;;;;10.45;5.22;;;;;;;27.22;33.50;100687.47;5054558;28;20070;-21
2021/09/26 10:04:09;;;;;;;9.00;5.60;;;;;;;27.53;33.91;100686.66;5089440;28;20032;-21
2021/09/26 10:06:41;;;;;;;8.80;5.43;;;;;;;28.06;32.80;100695.81;5089144;28;20541;-21
2021/09/26 10:09:23;;;;;;;9.68;5.72;;;;;;;28.13;32.30;100695.31;5089323;28;20032;-21
2021/09/26 10:11:53;;;;;;;8.73;5.15;;;;;;;28.62;32.59;100694.00;5089148;28;20118;-21
2021/09/26 10:14:19;;;;;;;9.38;5.28;;;;;;;28.84;32.94;100695.75;5089042;28;20453;-21
2021/09/26 10:16:45;;;;;;;7.90;4.78;;;;;;;28.77;32.71;100684.47;5089234;28;20028;-21
2021/09/26 10:19:10;;;;;;;6.72;4.78;;;;;;;28.88;32.64;100664.91;5088628;28;20468;-21
2021/09/26 10:21:37;;;;;;;8.50;4.78;;;;;;;28.55;32.09;100665.47;5089137;28;20032;-21
2021/09/26 10:24:03;;;;;;;9.23;4.80;;;;;;;28.43;32.52;100683.38;5089102;28;20035;-21
2021/09/26 10:26:29;;;;;;;9.52;5.03;;;;;;;28.44;32.29;100662.22;5088997;28;20032;-21
2021/09/26 10:28:55;;;;;;;10.52;5.32;;;;;;;28.54;32.62;100680.31;5070919;28;20101;-21
2021/09/26 10:31:21;;;;;;;7.03;4.57;;;;;;;28.89;31.90;100664.59;5088977;28;20040;-21
2021/09/26 10:33:47;;;;;;;6.47;4.50;;;;;;;28.73;32.41;100672.53;5088512;28;20067;-21
2021/09/26 10:36:12;;;;;;;9.27;4.80;;;;;;;29.51;30.38;100649.47;5089161;28;20031;-22
2021/09/26 10:38:38;;;;;;;6.28;4.60;;;;;;;30.17;30.21;100667.28;5088629;28;20028;-21
2021/09/26 10:41:05;;;;;;;6.15;4.32;;;;;;;30.61;29.01;100648.44;5070764;28;20036;-21
2021/09/26 10:43:30;;;;;;;;;;;;;;;30.09;29.19;100663.44;5089467;28;20032;-21
2021/09/26 10:46:16;;;;;;;9.13;4.50;;;;;;;30.15;29.47;100658.56;5088892;28;19911;-21
2021/09/26 10:48:57;;;;;;;10.00;4.57;;;;;;;30.31;28.42;100659.56;5088929;28;20274;-21
2021/09/26 10:51:44;;;;;;;6.60;4.03;;;;;;;30.09;27.99;100649.69;5088732;28;20056;-21
2021/09/26 10:54:22;;;;;;;7.07;4.00;;;;;;;30.02;28.44;100636.50;5088871;28;20028;-21
2021/09/26 10:56:59;;;;;;;6.55;4.15;;;;;;;30.05;29.02;100622.06;5088497;28;20024;-21
2021/09/26 10:59:25;;;;;;;6.65;4.20;;;;;;;30.59;27.04;100634.22;5088811;28;20070;-21
2021/09/26 11:01:50;;;;;;;7.00;4.00;;;;;;;30.72;27.69;100616.56;5053732;28;20029;-21
2021/09/26 11:04:16;;;;;;;8.15;4.18;;;;;;;30.74;28.89;100611.50;5054131;28;20096;-21
2021/09/26 11:06:42;;;;;;;6.72;4.60;;;;;;;30.78;27.25;100620.69;5082550;28;20028;-21
2021/09/26 11:09:10;;;;;;;6.63;3.60;;;;;;;30.82;27.56;100604.31;5088608;28;20404;-21
2021/09/26 11:11:37;;;;;;;9.32;3.85;;;;;;;30.75;28.31;100606.81;5088579;28;20031;-21
2021/09/26 11:14:03;;;;;;;10.95;4.53;;;;;;;30.99;29.08;100603.31;5088553;28;20038;-21
2021/09/26 11:16:52;;;;;;;7.38;4.13;;;;;;;30.86;27.66;100587.91;5088677;28;20029;-21
2021/09/26 11:19:18;;;;;;;6.65;4.22;;;;;;;31.19;27.43;100588.59;5088418;28;20032;-21
2021/09/26 11:21:44;;;;;;;6.07;3.72;;;;;;;30.81;27.82;100595.25;5088471;28;20036;-21